createdAt,value
2023-01-17T00:02:39.159Z,73.68
2023-01-17T00:06:22.486Z,66.53
2023-01-17T00:09:53.398Z,54.63
2023-01-17T00:13:15.527Z,74.32
2023-01-17T00:16:37.542Z,72.43
2023-01-17T00:20:20.071Z,76.38
2023-01-17T00:24:00.966Z,61.97
2023-01-17T00:27:22.896Z,66.00
2023-01-17T00:30:46.143Z,51.03
2023-01-17T00:34:08.065Z,65.53
2023-01-17T00:37:30.109Z,59.20
2023-01-17T00:40:52.220Z,50.28
2023-01-17T00:44:32.935Z,71.45
2023-01-17T00:48:13.747Z,55.40
2023-01-17T00:51:56.364Z,58.05
2023-01-17T00:55:36.844Z,54.50
2023-01-17T00:59:18.428Z,62.80
2023-01-17T01:02:59.129Z,67.88
2023-01-17T01:06:39.501Z,56.28
2023-01-17T01:10:20.022Z,56.53
2023-01-17T01:17:41.485Z,55.78
2023-01-17T01:21:22.949Z,49.42
2023-01-17T01:25:03.421Z,54.03
2023-01-17T01:28:45.203Z,56.53
2023-01-17T01:32:26.865Z,66.47
2023-01-17T01:35:55.826Z,59.72
2023-01-17T01:39:17.803Z,55.03
2023-01-17T01:42:52.526Z,58.55
2023-01-17T01:46:39.954Z,53.42
2023-01-17T01:50:05.516Z,55.33
2023-01-17T01:53:28.756Z,62.92
2023-01-17T01:56:54.740Z,56.72
2023-01-17T02:00:23.104Z,56.35
2023-01-17T02:03:48.007Z,57.15
2023-01-17T02:07:18.076Z,59.33
2023-01-17T02:14:03.592Z,62.17
2023-01-17T02:18:14.561Z,55.22
2023-01-17T02:21:45.254Z,57.85
2023-01-17T02:25:32.050Z,55.83
2023-01-17T02:29:15.287Z,59.78
2023-01-17T02:32:55.757Z,60.50
2023-01-17T02:36:30.394Z,60.72
2023-01-17T02:39:59.795Z,60.05
2023-01-17T02:43:24.172Z,54.28
2023-01-17T02:46:55.563Z,53.00
2023-01-17T02:50:20.700Z,56.90
2023-01-17T02:54:10.313Z,53.45
2023-01-17T02:57:52.345Z,61.28
2023-01-17T03:01:34.965Z,61.90
2023-01-17T03:05:06.320Z,51.83
2023-01-17T03:08:29.324Z,58.72
2023-01-17T03:11:52.359Z,61.00
2023-01-17T03:15:17.658Z,56.00
2023-01-17T03:18:39.711Z,48.92
2023-01-17T03:22:01.686Z,55.22
2023-01-17T03:25:23.667Z,58.22
2023-01-17T03:28:45.711Z,54.00
2023-01-17T03:32:07.798Z,54.38
2023-01-17T03:35:29.781Z,51.35
2023-01-17T03:38:51.823Z,60.38
2023-01-17T03:42:13.816Z,48.33
2023-01-17T03:45:35.802Z,48.00
2023-01-17T03:48:57.914Z,51.92
2023-01-17T03:52:19.893Z,59.25
2023-01-17T03:55:41.859Z,62.20
2023-01-17T03:59:03.893Z,52.90
2023-01-17T04:02:26.038Z,51.85
2023-01-17T04:05:48.313Z,62.30
2023-01-17T04:09:10.350Z,67.85
2023-01-17T04:12:32.415Z,57.78
2023-01-17T04:15:54.489Z,59.47
2023-01-17T04:19:17.392Z,54.75
2023-01-17T04:22:39.559Z,42.80
2023-01-17T04:26:03.641Z,54.70
2023-01-17T04:29:25.766Z,52.95
2023-01-17T04:32:47.795Z,60.08
2023-01-17T04:36:10.072Z,54.58
2023-01-17T04:39:32.064Z,44.53
2023-01-17T04:42:54.401Z,59.92
2023-01-17T04:46:16.458Z,54.47
2023-01-17T04:49:38.445Z,68.25
2023-01-17T04:53:00.895Z,61.72
2023-01-17T04:56:22.983Z,55.63
2023-01-17T04:59:45.581Z,55.72
2023-01-17T05:03:07.781Z,54.83
2023-01-17T05:06:29.777Z,54.30
2023-01-17T05:09:51.736Z,67.80
2023-01-17T05:13:14.160Z,47.13
2023-01-17T05:16:36.167Z,45.80
2023-01-17T05:19:58.198Z,59.67
2023-01-17T05:23:20.365Z,53.80
2023-01-17T05:26:43.211Z,59.90
2023-01-17T05:30:06.028Z,59.50
2023-01-17T05:33:28.092Z,60.35
2023-01-17T05:36:50.257Z,58.88
2023-01-17T05:40:19.672Z,66.97
2023-01-17T05:43:41.679Z,62.80
2023-01-17T05:47:03.654Z,59.70
2023-01-17T05:50:32.495Z,50.17
2023-01-17T05:53:54.437Z,54.60
2023-01-17T05:57:17.569Z,65.85
2023-01-17T06:00:39.817Z,50.00
2023-01-17T06:04:01.805Z,55.28
2023-01-17T06:07:23.819Z,65.85
2023-01-17T06:10:45.816Z,54.38
2023-01-17T06:14:08.684Z,55.97
2023-01-17T06:17:30.854Z,55.15
2023-01-17T06:20:55.060Z,60.92
2023-01-17T06:24:17.111Z,49.88
2023-01-17T06:27:39.143Z,56.35
2023-01-17T06:31:08.496Z,64.35
2023-01-17T06:34:30.862Z,63.15
2023-01-17T06:37:55.439Z,65.53
2023-01-17T06:41:17.717Z,55.58
2023-01-17T06:44:39.680Z,48.13
2023-01-17T06:48:04.147Z,59.30
2023-01-17T06:51:26.156Z,54.97
2023-01-17T06:54:48.139Z,55.60
2023-01-17T06:58:10.411Z,72.05
2023-01-17T07:01:32.573Z,55.28
2023-01-17T07:04:54.639Z,56.88
2023-01-17T07:08:17.648Z,55.58
2023-01-17T07:11:39.661Z,50.22
2023-01-17T07:15:01.714Z,56.53
2023-01-17T07:18:23.776Z,46.15
2023-01-17T07:21:45.785Z,46.33
2023-01-17T07:25:08.164Z,61.15
2023-01-17T07:28:30.205Z,40.25
2023-01-17T07:31:52.241Z,37.55
2023-01-17T07:35:14.306Z,36.13
2023-01-17T07:38:36.978Z,28.45
2023-01-17T07:41:58.927Z,25.08
2023-01-17T07:45:21.999Z,31.45
2023-01-17T07:48:44.212Z,27.88
2023-01-17T07:52:09.796Z,31.95
2023-01-17T07:55:32.662Z,31.05
2023-01-17T07:58:54.696Z,25.10
2023-01-17T08:02:19.257Z,30.23
2023-01-17T08:05:43.137Z,26.88
2023-01-17T08:09:05.360Z,25.50
2023-01-17T08:12:29.496Z,25.58
2023-01-17T08:15:52.206Z,23.23
2023-01-17T08:19:15.317Z,29.13
2023-01-17T08:22:37.429Z,26.50
2023-01-17T08:26:02.431Z,24.73
2023-01-17T08:29:24.997Z,25.17
2023-01-17T08:32:47.039Z,20.67
2023-01-17T08:36:09.096Z,15.98
2023-01-17T08:39:31.134Z,19.75
2023-01-17T08:42:57.633Z,24.20
2023-01-17T08:46:19.917Z,20.80
2023-01-17T08:49:42.087Z,26.38
2023-01-17T08:53:04.077Z,24.48
2023-01-17T08:56:27.449Z,34.40
2023-01-17T08:59:49.492Z,26.08
2023-01-17T09:03:14.486Z,32.65
2023-01-17T09:06:38.152Z,27.23
2023-01-17T09:10:00.427Z,32.40
2023-01-17T09:13:22.781Z,36.92
2023-01-17T09:16:45.641Z,26.50
2023-01-17T09:20:08.467Z,27.00
2023-01-17T09:23:30.809Z,30.95
2023-01-17T09:26:53.015Z,25.02
2023-01-17T09:30:15.348Z,22.75
2023-01-17T09:33:38.092Z,22.50
2023-01-17T09:37:00.209Z,22.95
2023-01-17T09:40:25.366Z,17.10
2023-01-17T09:43:55.875Z,22.05
2023-01-17T09:47:36.476Z,22.05
2023-01-17T09:51:06.044Z,18.75
2023-01-17T09:54:35.037Z,18.55
2023-01-17T09:58:12.127Z,19.02
2023-01-17T10:02:07.154Z,18.17
2023-01-17T10:05:48.228Z,17.17
2023-01-17T10:09:31.003Z,13.23
2023-01-17T10:13:08.901Z,12.35
2023-01-17T10:16:40.659Z,19.42
2023-01-17T10:20:24.434Z,14.13
2023-01-17T10:24:16.396Z,13.45
2023-01-17T10:27:43.520Z,9.60
2023-01-17T10:31:10.542Z,14.48
2023-01-17T10:34:45.817Z,14.38
2023-01-17T10:38:12.959Z,17.30
2023-01-17T10:41:40.069Z,14.63
2023-01-17T10:45:16.638Z,25.73
2023-01-17T10:48:42.515Z,27.67
2023-01-17T10:52:04.497Z,34.85
2023-01-17T10:55:29.338Z,28.70
2023-01-17T10:59:16.358Z,31.30
2023-01-17T11:02:50.622Z,20.45
2023-01-17T11:06:22.737Z,23.67
2023-01-17T11:09:47.251Z,21.13
2023-01-17T11:13:24.801Z,23.33
2023-01-17T11:17:03.113Z,27.73
2023-01-17T11:20:38.108Z,23.67
2023-01-17T11:24:10.810Z,25.75
2023-01-17T11:27:39.609Z,12.88
2023-01-17T11:31:07.840Z,13.63
2023-01-17T11:34:32.104Z,15.55
2023-01-17T11:38:02.906Z,11.25
2023-01-17T11:41:33.826Z,6.00
2023-01-17T11:44:57.370Z,6.75
2023-01-17T11:48:19.645Z,5.43
2023-01-17T11:51:42.584Z,6.47
2023-01-17T11:55:06.482Z,6.95
2023-01-17T11:58:29.181Z,7.68
2023-01-17T12:02:16.266Z,6.22
2023-01-17T12:05:59.363Z,9.77
2023-01-17T12:09:42.869Z,9.40
2023-01-17T12:13:38.365Z,4.35
2023-01-17T12:17:18.488Z,4.38
2023-01-17T12:20:46.588Z,5.55
2023-01-17T12:24:23.903Z,9.50
2023-01-17T12:28:18.840Z,8.30
2023-01-17T12:32:14.187Z,7.97
2023-01-17T12:35:41.734Z,10.40
2023-01-17T12:39:11.955Z,8.65
2023-01-17T12:42:43.949Z,11.23
2023-01-17T12:46:27.184Z,13.35
2023-01-17T12:49:49.232Z,17.15
2023-01-17T12:53:30.219Z,13.88
2023-01-17T12:57:06.400Z,10.43
2023-01-17T13:00:30.022Z,12.02
2023-01-17T13:04:24.361Z,7.10
2023-01-17T13:07:49.212Z,8.05
2023-01-17T13:11:41.124Z,6.60
2023-01-17T13:15:07.225Z,8.50
2023-01-17T13:18:30.024Z,7.28
2023-01-17T13:21:52.710Z,8.00
2023-01-17T13:25:39.709Z,14.77
2023-01-17T13:29:16.906Z,11.73
2023-01-17T13:33:07.313Z,9.88
2023-01-17T13:37:04.686Z,12.52
2023-01-17T13:40:33.121Z,10.32
2023-01-17T13:44:14.273Z,8.63
2023-01-17T13:47:39.582Z,10.88
2023-01-17T13:51:06.754Z,11.02
2023-01-17T13:54:33.401Z,8.95
2023-01-17T13:57:55.707Z,14.30
2023-01-17T14:01:23.815Z,13.02
2023-01-17T14:05:09.287Z,14.82
2023-01-17T14:08:32.145Z,15.40
2023-01-17T14:12:08.680Z,12.90
2023-01-17T14:15:34.997Z,14.88
2023-01-17T14:18:57.587Z,14.20
2023-01-17T14:22:19.522Z,14.57
2023-01-17T14:25:41.990Z,16.33
2023-01-17T14:29:41.075Z,12.70
2023-01-17T14:33:05.981Z,11.40
2023-01-17T14:36:32.398Z,14.38
2023-01-17T14:39:54.660Z,13.25
2023-01-17T14:43:20.395Z,12.15
2023-01-17T14:46:48.411Z,7.47
2023-01-17T14:50:30.348Z,9.05
2023-01-17T14:53:54.633Z,6.45
2023-01-17T14:57:29.509Z,5.50
2023-01-17T15:01:07.325Z,6.43
2023-01-17T15:04:30.831Z,6.65
2023-01-17T15:07:56.217Z,5.28
2023-01-17T15:11:25.104Z,10.50
2023-01-17T15:14:47.507Z,8.05
2023-01-17T15:18:19.572Z,6.85
2023-01-17T15:21:44.481Z,5.43
2023-01-17T15:25:09.135Z,10.82
2023-01-17T15:28:32.590Z,8.40
2023-01-17T15:32:00.309Z,11.63
2023-01-17T15:35:22.482Z,5.10
2023-01-17T15:38:52.882Z,8.90
2023-01-17T15:42:36.420Z,9.43
2023-01-17T15:45:59.200Z,10.30
2023-01-17T15:49:24.290Z,11.90
2023-01-17T15:52:57.977Z,8.82
2023-01-17T15:56:33.554Z,7.70
2023-01-17T16:00:00.000Z,8.05
2023-01-17T16:03:26.298Z,8.05
2023-01-17T16:06:48.434Z,7.22
2023-01-17T16:10:37.831Z,8.43
2023-01-17T16:13:59.891Z,8.30
2023-01-17T16:17:22.005Z,8.45
2023-01-17T16:20:46.624Z,20.67
2023-01-17T16:24:10.941Z,20.52
2023-01-17T16:27:32.960Z,35.92
2023-01-17T16:30:55.040Z,9.02
2023-01-17T16:34:17.009Z,10.05
2023-01-17T16:37:39.034Z,13.05
2023-01-17T16:41:04.542Z,18.15
2023-01-17T16:44:26.512Z,10.77
2023-01-17T16:47:48.629Z,9.55
2023-01-17T16:51:11.100Z,9.90
2023-01-17T16:54:33.524Z,12.18
2023-01-17T16:57:58.243Z,10.10
2023-01-17T17:01:22.688Z,39.95
2023-01-17T17:04:45.176Z,14.23
2023-01-17T17:08:07.208Z,10.50
2023-01-17T17:11:29.235Z,15.80
2023-01-17T17:14:51.396Z,9.50
2023-01-17T17:18:15.447Z,11.00
2023-01-17T17:21:37.734Z,13.48
2023-01-17T17:25:00.702Z,11.65
2023-01-17T17:28:22.723Z,9.63
2023-01-17T17:31:44.828Z,11.98
2023-01-17T17:35:07.088Z,18.75
2023-01-17T17:38:29.108Z,30.13
2023-01-17T17:41:51.936Z,17.13
2023-01-17T17:45:13.972Z,20.15
2023-01-17T17:48:36.687Z,12.73
2023-01-17T17:52:06.353Z,19.80
2023-01-17T17:55:29.419Z,23.45
2023-01-17T17:58:51.564Z,20.60
2023-01-17T18:02:13.656Z,23.85
2023-01-17T18:05:35.775Z,35.67
2023-01-17T18:08:57.775Z,47.95
2023-01-17T18:12:19.748Z,55.40
2023-01-17T18:15:42.019Z,44.08
2023-01-17T18:19:05.544Z,39.60
2023-01-17T18:22:32.292Z,29.08
2023-01-17T18:25:54.284Z,26.52
2023-01-17T18:29:17.787Z,21.17
2023-01-17T18:32:39.783Z,20.88
2023-01-17T18:36:04.695Z,15.23
2023-01-17T18:39:29.222Z,20.77
2023-01-17T18:42:51.219Z,21.17
2023-01-17T18:46:14.322Z,20.15
2023-01-17T18:49:36.500Z,18.25
2023-01-17T18:52:58.575Z,18.65
2023-01-17T18:56:22.657Z,18.98
2023-01-17T18:59:44.794Z,18.75
2023-01-17T19:03:06.751Z,19.55
2023-01-17T19:06:38.866Z,22.10
2023-01-17T19:10:00.929Z,14.50
2023-01-17T19:13:22.960Z,15.50
2023-01-17T19:16:45.076Z,18.10
2023-01-17T19:20:09.057Z,18.13
2023-01-17T19:23:31.148Z,20.10
2023-01-17T19:26:54.111Z,19.92
2023-01-17T19:30:16.303Z,22.33
2023-01-17T19:33:39.713Z,20.42
2023-01-17T19:37:02.548Z,23.35
2023-01-17T19:40:24.651Z,19.63
2023-01-17T19:43:47.612Z,21.63
2023-01-17T19:47:12.292Z,24.50
2023-01-17T19:50:36.683Z,29.27
2023-01-17T19:54:02.893Z,23.67
2023-01-17T19:57:26.431Z,24.77
2023-01-17T20:00:48.438Z,24.83
2023-01-17T20:04:10.484Z,22.38
2023-01-17T20:07:33.763Z,22.40
2023-01-17T20:11:07.852Z,23.80
2023-01-17T20:14:29.892Z,19.38
2023-01-17T20:17:52.065Z,20.38
2023-01-17T20:21:19.352Z,16.40
2023-01-17T20:24:41.341Z,20.08
2023-01-17T20:28:04.957Z,17.67
2023-01-17T20:31:28.532Z,18.50
2023-01-17T20:34:51.433Z,17.70
2023-01-17T20:38:13.483Z,19.42
2023-01-17T20:41:40.610Z,20.83
2023-01-17T20:45:02.878Z,14.75
2023-01-17T20:48:24.947Z,15.98
2023-01-17T20:51:47.598Z,15.15
2023-01-17T20:55:10.021Z,18.85
2023-01-17T20:58:33.119Z,21.35
2023-01-17T21:01:55.243Z,20.77
2023-01-17T21:05:17.241Z,17.08
2023-01-17T21:08:41.313Z,18.35
2023-01-17T21:12:03.373Z,23.52
2023-01-17T21:15:26.354Z,21.00
2023-01-17T21:18:49.212Z,17.83
2023-01-17T21:22:11.290Z,17.73
2023-01-17T21:25:33.312Z,20.02
2023-01-17T21:28:55.449Z,18.95
2023-01-17T21:32:17.456Z,19.08
2023-01-17T21:35:39.512Z,20.33
2023-01-17T21:39:04.888Z,17.15
2023-01-17T21:42:26.941Z,19.33
2023-01-17T21:45:49.038Z,18.58
2023-01-17T21:49:12.113Z,16.85
2023-01-17T21:52:34.256Z,19.13
2023-01-17T21:56:19.769Z,21.35
2023-01-17T21:59:41.779Z,16.05
2023-01-17T22:03:03.950Z,20.25
2023-01-17T22:06:28.981Z,15.60
2023-01-17T22:09:51.006Z,15.73
2023-01-17T22:13:15.036Z,20.35
2023-01-17T22:16:37.059Z,15.20
2023-01-17T22:19:59.020Z,19.85
2023-01-17T22:23:21.361Z,15.50
2023-01-17T22:26:43.682Z,14.90
2023-01-17T22:30:09.070Z,14.98
2023-01-17T22:33:31.068Z,20.13
2023-01-17T22:36:53.527Z,22.10
2023-01-17T22:40:15.658Z,12.60
2023-01-17T22:43:39.805Z,21.67
2023-01-17T22:47:02.158Z,15.23
2023-01-17T22:50:24.176Z,20.85
2023-01-17T22:53:48.351Z,21.23
2023-01-17T22:57:10.440Z,20.92
2023-01-17T23:00:32.437Z,20.63
2023-01-17T23:04:02.680Z,17.35
2023-01-17T23:07:27.069Z,16.27
2023-01-17T23:11:07.625Z,16.25
2023-01-17T23:18:13.180Z,13.18
2023-01-17T23:21:53.873Z,18.65
2023-01-17T23:25:16.120Z,15.77
2023-01-17T23:28:38.147Z,21.17
2023-01-17T23:32:00.167Z,16.20
2023-01-17T23:35:30.190Z,16.50
2023-01-17T23:38:52.171Z,17.60
2023-01-17T23:42:33.558Z,13.93
2023-01-17T23:45:55.639Z,16.15
2023-01-17T23:49:17.609Z,17.17
2023-01-17T23:52:39.643Z,21.63
2023-01-17T23:56:06.790Z,21.65
2023-01-17T23:59:29.164Z,16.02
